sensor_id;sensor_type;location;lat;lon;timestamp;P1;durP1;ratioP1;P2;durP2;ratioP2
5929;SDS011;2990;48.746;9.236;2023-07-13T00:01:27;570.90;;;534.63;;
5929;SDS011;2990;48.746;9.236;2023-07-13T00:03:54;602.22;;;563.42;;
5929;SDS011;2990;48.746;9.236;2023-07-13T00:06:20;584.08;;;546.65;;
5929;SDS011;2990;48.746;9.236;2023-07-13T00:08:46;571.55;;;535.50;;
5929;SDS011;2990;48.746;9.236;2023-07-13T00:11:13;559.28;;;524.10;;
5929;SDS011;2990;48.746;9.236;2023-07-13T00:13:40;566.90;;;531.97;;
5929;SDS011;2990;48.746;9.236;2023-07-13T00:16:08;508.23;;;477.08;;
5929;SDS011;2990;48.746;9.236;2023-07-13T00:18:35;544.58;;;511.42;;
5929;SDS011;2990;48.746;9.236;2023-07-13T00:21:00;511.65;;;480.17;;
5929;SDS011;2990;48.746;9.236;2023-07-13T00:23:31;502.00;;;471.63;;
5929;SDS011;2990;48.746;9.236;2023-07-13T00:25:58;522.88;;;491.52;;
5929;SDS011;2990;48.746;9.236;2023-07-13T00:28:28;477.20;;;449.05;;
5929;SDS011;2990;48.746;9.236;2023-07-13T00:30:53;502.15;;;472.65;;
5929;SDS011;2990;48.746;9.236;2023-07-13T00:33:19;510.85;;;480.20;;
5929;SDS011;2990;48.746;9.236;2023-07-13T00:35:45;507.42;;;477.05;;
5929;SDS011;2990;48.746;9.236;2023-07-13T00:38:11;490.23;;;461.02;;
5929;SDS011;2990;48.746;9.236;2023-07-13T00:40:36;497.52;;;468.13;;
5929;SDS011;2990;48.746;9.236;2023-07-13T00:43:02;499.05;;;469.77;;
5929;SDS011;2990;48.746;9.236;2023-07-13T00:47:55;458.15;;;431.90;;
5929;SDS011;2990;48.746;9.236;2023-07-13T00:50:22;462.83;;;435.70;;
5929;SDS011;2990;48.746;9.236;2023-07-13T00:52:54;427.70;;;403.63;;
5929;SDS011;2990;48.746;9.236;2023-07-13T00:55:22;466.85;;;439.50;;
5929;SDS011;2990;48.746;9.236;2023-07-13T00:57:48;454.20;;;428.50;;
5929;SDS011;2990;48.746;9.236;2023-07-13T01:00:14;443.55;;;418.05;;
5929;SDS011;2990;48.746;9.236;2023-07-13T01:02:41;424.35;;;400.52;;
5929;SDS011;2990;48.746;9.236;2023-07-13T01:05:16;431.42;;;406.83;;
5929;SDS011;2990;48.746;9.236;2023-07-13T01:07:44;417.52;;;394.05;;
5929;SDS011;2990;48.746;9.236;2023-07-13T01:10:11;403.55;;;380.95;;
5929;SDS011;2990;48.746;9.236;2023-07-13T01:12:38;443.30;;;418.10;;
5929;SDS011;2990;48.746;9.236;2023-07-13T01:15:03;419.15;;;395.73;;
5929;SDS011;2990;48.746;9.236;2023-07-13T01:17:30;393.60;;;371.80;;
5929;SDS011;2990;48.746;9.236;2023-07-13T01:19:59;391.65;;;369.92;;
5929;SDS011;2990;48.746;9.236;2023-07-13T01:22:25;400.63;;;378.48;;
5929;SDS011;2990;48.746;9.236;2023-07-13T01:24:52;413.50;;;390.30;;
5929;SDS011;2990;48.746;9.236;2023-07-13T01:27:24;415.60;;;392.40;;
5929;SDS011;2990;48.746;9.236;2023-07-13T01:29:51;412.20;;;389.25;;
5929;SDS011;2990;48.746;9.236;2023-07-13T01:32:19;415.08;;;392.05;;
5929;SDS011;2990;48.746;9.236;2023-07-13T01:34:49;388.70;;;367.13;;
5929;SDS011;2990;48.746;9.236;2023-07-13T01:37:15;424.00;;;400.40;;
5929;SDS011;2990;48.746;9.236;2023-07-13T01:39:41;389.02;;;367.35;;
5929;SDS011;2990;48.746;9.236;2023-07-13T01:42:07;401.15;;;379.05;;
5929;SDS011;2990;48.746;9.236;2023-07-13T01:44:32;381.80;;;360.77;;
5929;SDS011;2990;48.746;9.236;2023-07-13T01:46:58;389.23;;;368.05;;
5929;SDS011;2990;48.746;9.236;2023-07-13T01:49:23;380.95;;;360.10;;
5929;SDS011;2990;48.746;9.236;2023-07-13T01:51:49;365.25;;;345.15;;
5929;SDS011;2990;48.746;9.236;2023-07-13T01:54:14;379.77;;;359.13;;
5929;SDS011;2990;48.746;9.236;2023-07-13T01:56:40;365.60;;;345.75;;
5929;SDS011;2990;48.746;9.236;2023-07-13T01:59:06;364.48;;;344.55;;
5929;SDS011;2990;48.746;9.236;2023-07-13T02:01:32;345.80;;;327.48;;
5929;SDS011;2990;48.746;9.236;2023-07-13T02:03:58;366.83;;;347.10;;
5929;SDS011;2990;48.746;9.236;2023-07-13T02:06:23;366.98;;;347.25;;
5929;SDS011;2990;48.746;9.236;2023-07-13T02:08:49;333.25;;;315.60;;
5929;SDS011;2990;48.746;9.236;2023-07-13T02:11:14;355.20;;;336.33;;
5929;SDS011;2990;48.746;9.236;2023-07-13T02:13:40;361.20;;;342.15;;
5929;SDS011;2990;48.746;9.236;2023-07-13T02:16:05;341.08;;;323.05;;
5929;SDS011;2990;48.746;9.236;2023-07-13T02:18:31;333.73;;;316.38;;
5929;SDS011;2990;48.746;9.236;2023-07-13T02:20:57;329.73;;;312.73;;
5929;SDS011;2990;48.746;9.236;2023-07-13T02:23:23;334.33;;;317.00;;
5929;SDS011;2990;48.746;9.236;2023-07-13T02:25:48;307.48;;;291.67;;
5929;SDS011;2990;48.746;9.236;2023-07-13T02:28:14;328.60;;;311.48;;
5929;SDS011;2990;48.746;9.236;2023-07-13T02:30:40;348.15;;;329.80;;
5929;SDS011;2990;48.746;9.236;2023-07-13T02:33:05;313.73;;;297.33;;
5929;SDS011;2990;48.746;9.236;2023-07-13T02:35:31;318.95;;;302.63;;
5929;SDS011;2990;48.746;9.236;2023-07-13T02:37:56;309.67;;;293.95;;
5929;SDS011;2990;48.746;9.236;2023-07-13T02:40:22;312.08;;;296.13;;
5929;SDS011;2990;48.746;9.236;2023-07-13T02:42:47;303.55;;;288.40;;
5929;SDS011;2990;48.746;9.236;2023-07-13T02:45:13;301.45;;;286.15;;
5929;SDS011;2990;48.746;9.236;2023-07-13T02:47:40;310.45;;;294.88;;
5929;SDS011;2990;48.746;9.236;2023-07-13T02:50:06;298.63;;;283.58;;
5929;SDS011;2990;48.746;9.236;2023-07-13T02:52:32;296.00;;;281.20;;
5929;SDS011;2990;48.746;9.236;2023-07-13T02:54:58;300.70;;;285.63;;
5929;SDS011;2990;48.746;9.236;2023-07-13T02:57:23;296.10;;;281.10;;
5929;SDS011;2990;48.746;9.236;2023-07-13T02:59:49;304.98;;;289.67;;
5929;SDS011;2990;48.746;9.236;2023-07-13T03:02:14;292.58;;;278.13;;
5929;SDS011;2990;48.746;9.236;2023-07-13T03:04:40;301.15;;;286.20;;
5929;SDS011;2990;48.746;9.236;2023-07-13T03:07:06;283.70;;;269.55;;
5929;SDS011;2990;48.746;9.236;2023-07-13T03:09:32;293.42;;;278.65;;
5929;SDS011;2990;48.746;9.236;2023-07-13T03:11:58;278.13;;;264.08;;
5929;SDS011;2990;48.746;9.236;2023-07-13T03:14:24;284.35;;;270.17;;
5929;SDS011;2990;48.746;9.236;2023-07-13T03:16:50;315.75;;;299.75;;
5929;SDS011;2990;48.746;9.236;2023-07-13T03:19:16;293.83;;;279.10;;
5929;SDS011;2990;48.746;9.236;2023-07-13T03:21:42;279.98;;;266.10;;
5929;SDS011;2990;48.746;9.236;2023-07-13T03:24:08;294.90;;;280.08;;
5929;SDS011;2990;48.746;9.236;2023-07-13T03:26:34;300.25;;;285.20;;
5929;SDS011;2990;48.746;9.236;2023-07-13T03:28:59;302.83;;;287.60;;
5929;SDS011;2990;48.746;9.236;2023-07-13T03:31:26;322.80;;;306.42;;
5929;SDS011;2990;48.746;9.236;2023-07-13T03:33:54;299.25;;;284.30;;
5929;SDS011;2990;48.746;9.236;2023-07-13T03:36:21;310.50;;;294.95;;
5929;SDS011;2990;48.746;9.236;2023-07-13T03:38:50;291.95;;;277.23;;
5929;SDS011;2990;48.746;9.236;2023-07-13T03:41:20;327.65;;;310.83;;
5929;SDS011;2990;48.746;9.236;2023-07-13T03:43:47;309.23;;;293.63;;
5929;SDS011;2990;48.746;9.236;2023-07-13T03:46:14;317.40;;;301.00;;
5929;SDS011;2990;48.746;9.236;2023-07-13T03:48:40;335.00;;;317.85;;
5929;SDS011;2990;48.746;9.236;2023-07-13T03:51:08;328.33;;;311.20;;
5929;SDS011;2990;48.746;9.236;2023-07-13T03:53:37;331.17;;;314.00;;
5929;SDS011;2990;48.746;9.236;2023-07-13T03:56:04;331.58;;;314.48;;
5929;SDS011;2990;48.746;9.236;2023-07-13T03:58:31;350.40;;;332.10;;
5929;SDS011;2990;48.746;9.236;2023-07-13T04:00:59;323.15;;;306.52;;
5929;SDS011;2990;48.746;9.236;2023-07-13T04:03:26;333.98;;;316.55;;
5929;SDS011;2990;48.746;9.236;2023-07-13T04:05:53;319.10;;;302.65;;
5929;SDS011;2990;48.746;9.236;2023-07-13T04:08:28;332.95;;;315.50;;
5929;SDS011;2990;48.746;9.236;2023-07-13T04:10:56;328.83;;;311.73;;
5929;SDS011;2990;48.746;9.236;2023-07-13T04:13:23;306.45;;;290.58;;
5929;SDS011;2990;48.746;9.236;2023-07-13T04:15:49;318.48;;;301.73;;
5929;SDS011;2990;48.746;9.236;2023-07-13T04:18:14;311.83;;;295.95;;
5929;SDS011;2990;48.746;9.236;2023-07-13T04:20:40;349.08;;;330.90;;
5929;SDS011;2990;48.746;9.236;2023-07-13T04:23:05;354.23;;;335.40;;
5929;SDS011;2990;48.746;9.236;2023-07-13T04:25:31;342.23;;;324.15;;
5929;SDS011;2990;48.746;9.236;2023-07-13T04:27:57;318.27;;;301.65;;
5929;SDS011;2990;48.746;9.236;2023-07-13T04:30:22;323.27;;;306.10;;
5929;SDS011;2990;48.746;9.236;2023-07-13T04:32:49;347.40;;;329.20;;
5929;SDS011;2990;48.746;9.236;2023-07-13T04:35:17;341.60;;;323.52;;
5929;SDS011;2990;48.746;9.236;2023-07-13T04:37:43;356.88;;;337.90;;
5929;SDS011;2990;48.746;9.236;2023-07-13T04:40:08;350.90;;;332.25;;
5929;SDS011;2990;48.746;9.236;2023-07-13T04:42:37;343.38;;;325.20;;
5929;SDS011;2990;48.746;9.236;2023-07-13T04:45:04;340.40;;;322.55;;
5929;SDS011;2990;48.746;9.236;2023-07-13T04:47:31;341.70;;;323.67;;
5929;SDS011;2990;48.746;9.236;2023-07-13T04:49:57;354.88;;;336.08;;
5929;SDS011;2990;48.746;9.236;2023-07-13T04:52:22;358.45;;;339.52;;
5929;SDS011;2990;48.746;9.236;2023-07-13T04:54:48;291.83;;;277.05;;
5929;SDS011;2990;48.746;9.236;2023-07-13T04:57:14;344.08;;;326.15;;
5929;SDS011;2990;48.746;9.236;2023-07-13T04:59:40;335.38;;;317.80;;
5929;SDS011;2990;48.746;9.236;2023-07-13T05:02:05;315.60;;;299.33;;
5929;SDS011;2990;48.746;9.236;2023-07-13T05:04:31;321.50;;;304.98;;
5929;SDS011;2990;48.746;9.236;2023-07-13T05:06:57;332.60;;;315.20;;
5929;SDS011;2990;48.746;9.236;2023-07-13T05:09:22;314.90;;;298.73;;
5929;SDS011;2990;48.746;9.236;2023-07-13T05:11:48;310.65;;;294.58;;
5929;SDS011;2990;48.746;9.236;2023-07-13T05:14:13;346.05;;;327.63;;
5929;SDS011;2990;48.746;9.236;2023-07-13T05:16:40;340.77;;;322.95;;
5929;SDS011;2990;48.746;9.236;2023-07-13T05:19:05;351.00;;;332.50;;
5929;SDS011;2990;48.746;9.236;2023-07-13T05:21:31;336.83;;;318.92;;
5929;SDS011;2990;48.746;9.236;2023-07-13T05:23:57;341.95;;;323.83;;
5929;SDS011;2990;48.746;9.236;2023-07-13T05:26:22;365.35;;;345.63;;
5929;SDS011;2990;48.746;9.236;2023-07-13T05:28:47;342.85;;;324.60;;
5929;SDS011;2990;48.746;9.236;2023-07-13T05:31:13;355.27;;;336.20;;
5929;SDS011;2990;48.746;9.236;2023-07-13T05:33:39;393.98;;;371.73;;
5929;SDS011;2990;48.746;9.236;2023-07-13T05:36:05;401.02;;;378.67;;
5929;SDS011;2990;48.746;9.236;2023-07-13T05:38:32;380.30;;;359.23;;
5929;SDS011;2990;48.746;9.236;2023-07-13T05:40:57;446.73;;;421.38;;
5929;SDS011;2990;48.746;9.236;2023-07-13T05:43:23;448.25;;;422.63;;
5929;SDS011;2990;48.746;9.236;2023-07-13T05:45:51;450.73;;;424.77;;
5929;SDS011;2990;48.746;9.236;2023-07-13T05:48:21;447.80;;;422.20;;
5929;SDS011;2990;48.746;9.236;2023-07-13T05:50:47;453.63;;;427.52;;
5929;SDS011;2990;48.746;9.236;2023-07-13T05:53:13;419.52;;;396.17;;
5929;SDS011;2990;48.746;9.236;2023-07-13T05:55:42;434.67;;;410.10;;
5929;SDS011;2990;48.746;9.236;2023-07-13T05:58:08;448.05;;;422.38;;
5929;SDS011;2990;48.746;9.236;2023-07-13T06:00:35;464.92;;;437.95;;
5929;SDS011;2990;48.746;9.236;2023-07-13T06:03:00;454.30;;;428.25;;
5929;SDS011;2990;48.746;9.236;2023-07-13T06:05:26;430.05;;;405.73;;
5929;SDS011;2990;48.746;9.236;2023-07-13T06:07:53;433.58;;;409.02;;
5929;SDS011;2990;48.746;9.236;2023-07-13T06:10:19;457.00;;;430.65;;
5929;SDS011;2990;48.746;9.236;2023-07-13T06:12:45;454.20;;;428.08;;
5929;SDS011;2990;48.746;9.236;2023-07-13T06:15:10;475.23;;;447.33;;
5929;SDS011;2990;48.746;9.236;2023-07-13T06:17:36;498.63;;;469.20;;
5929;SDS011;2990;48.746;9.236;2023-07-13T06:20:01;500.27;;;470.00;;
5929;SDS011;2990;48.746;9.236;2023-07-13T06:22:27;529.28;;;496.40;;
5929;SDS011;2990;48.746;9.236;2023-07-13T06:24:53;567.22;;;531.13;;
5929;SDS011;2990;48.746;9.236;2023-07-13T06:27:18;629.70;;;588.13;;
5929;SDS011;2990;48.746;9.236;2023-07-13T06:29:44;642.33;;;600.30;;
5929;SDS011;2990;48.746;9.236;2023-07-13T06:32:10;688.17;;;643.00;;
5929;SDS011;2990;48.746;9.236;2023-07-13T06:34:35;681.85;;;636.60;;
5929;SDS011;2990;48.746;9.236;2023-07-13T06:37:01;703.28;;;656.50;;
5929;SDS011;2990;48.746;9.236;2023-07-13T06:39:27;742.67;;;692.55;;
5929;SDS011;2990;48.746;9.236;2023-07-13T06:41:52;705.45;;;658.75;;
5929;SDS011;2990;48.746;9.236;2023-07-13T06:44:18;740.15;;;690.60;;
5929;SDS011;2990;48.746;9.236;2023-07-13T06:46:43;739.75;;;689.90;;
5929;SDS011;2990;48.746;9.236;2023-07-13T06:49:09;818.67;;;762.55;;
5929;SDS011;2990;48.746;9.236;2023-07-13T06:51:34;809.20;;;753.13;;
5929;SDS011;2990;48.746;9.236;2023-07-13T06:54:00;852.05;;;792.67;;
5929;SDS011;2990;48.746;9.236;2023-07-13T06:56:25;911.45;;;845.88;;
5929;SDS011;2990;48.746;9.236;2023-07-13T06:58:51;859.38;;;798.03;;
5929;SDS011;2990;48.746;9.236;2023-07-13T07:01:16;941.67;;;873.15;;
5929;SDS011;2990;48.746;9.236;2023-07-13T07:03:42;961.08;;;889.88;;
5929;SDS011;2990;48.746;9.236;2023-07-13T07:06:12;931.55;;;862.78;;
5929;SDS011;2990;48.746;9.236;2023-07-13T07:08:41;986.00;;;911.17;;
5929;SDS011;2990;48.746;9.236;2023-07-13T07:11:08;987.78;;;912.45;;
5929;SDS011;2990;48.746;9.236;2023-07-13T07:13:36;1035.05;;;953.80;;
5929;SDS011;2990;48.746;9.236;2023-07-13T07:16:02;1060.43;;;975.25;;
5929;SDS011;2990;48.746;9.236;2023-07-13T07:18:27;1051.05;;;965.22;;
5929;SDS011;2990;48.746;9.236;2023-07-13T07:20:53;1082.50;;;990.35;;
5929;SDS011;2990;48.746;9.236;2023-07-13T07:23:18;1089.25;;;992.40;;
5929;SDS011;2990;48.746;9.236;2023-07-13T07:25:44;1152.35;;;999.90;;
5929;SDS011;2990;48.746;9.236;2023-07-13T07:28:10;1138.95;;;999.90;;
5929;SDS011;2990;48.746;9.236;2023-07-13T07:30:37;1173.40;;;999.90;;
5929;SDS011;2990;48.746;9.236;2023-07-13T07:33:08;1177.38;;;999.90;;
5929;SDS011;2990;48.746;9.236;2023-07-13T07:35:33;1155.13;;;999.90;;
5929;SDS011;2990;48.746;9.236;2023-07-13T07:37:59;1174.38;;;999.90;;
5929;SDS011;2990;48.746;9.236;2023-07-13T07:40:24;1169.30;;;999.90;;
5929;SDS011;2990;48.746;9.236;2023-07-13T07:42:51;1180.40;;;999.90;;
5929;SDS011;2990;48.746;9.236;2023-07-13T07:45:18;1192.50;;;999.90;;
5929;SDS011;2990;48.746;9.236;2023-07-13T07:47:44;1199.90;;;999.90;;
5929;SDS011;2990;48.746;9.236;2023-07-13T07:50:10;1243.57;;;999.90;;
5929;SDS011;2990;48.746;9.236;2023-07-13T07:52:36;1158.90;;;999.90;;
5929;SDS011;2990;48.746;9.236;2023-07-13T07:55:03;1252.70;;;999.90;;
5929;SDS011;2990;48.746;9.236;2023-07-13T07:57:29;1221.03;;;999.90;;
5929;SDS011;2990;48.746;9.236;2023-07-13T07:59:55;1132.35;;;999.90;;
5929;SDS011;2990;48.746;9.236;2023-07-13T08:02:20;1173.75;;;999.90;;
5929;SDS011;2990;48.746;9.236;2023-07-13T08:04:46;1254.60;;;999.90;;
5929;SDS011;2990;48.746;9.236;2023-07-13T08:07:11;1154.78;;;999.90;;
5929;SDS011;2990;48.746;9.236;2023-07-13T08:09:37;1163.50;;;999.90;;
5929;SDS011;2990;48.746;9.236;2023-07-13T08:12:02;1241.82;;;999.90;;
5929;SDS011;2990;48.746;9.236;2023-07-13T08:14:28;1243.43;;;999.90;;
5929;SDS011;2990;48.746;9.236;2023-07-13T08:16:54;1255.95;;;999.90;;
5929;SDS011;2990;48.746;9.236;2023-07-13T08:19:20;1152.68;;;999.90;;
5929;SDS011;2990;48.746;9.236;2023-07-13T08:21:45;1180.00;;;999.90;;
5929;SDS011;2990;48.746;9.236;2023-07-13T08:24:13;1246.43;;;999.90;;
5929;SDS011;2990;48.746;9.236;2023-07-13T08:26:39;1255.03;;;999.90;;
5929;SDS011;2990;48.746;9.236;2023-07-13T08:29:04;1188.53;;;999.90;;
5929;SDS011;2990;48.746;9.236;2023-07-13T08:31:30;1278.07;;;999.90;;
5929;SDS011;2990;48.746;9.236;2023-07-13T08:33:56;1224.22;;;999.90;;
5929;SDS011;2990;48.746;9.236;2023-07-13T08:36:21;1318.82;;;999.90;;
5929;SDS011;2990;48.746;9.236;2023-07-13T08:38:47;1232.75;;;999.90;;
5929;SDS011;2990;48.746;9.236;2023-07-13T08:41:14;1229.05;;;999.90;;
5929;SDS011;2990;48.746;9.236;2023-07-13T08:43:42;1337.50;;;999.90;;
5929;SDS011;2990;48.746;9.236;2023-07-13T08:46:24;1374.40;;;999.90;;
5929;SDS011;2990;48.746;9.236;2023-07-13T08:48:56;1349.38;;;999.90;;
5929;SDS011;2990;48.746;9.236;2023-07-13T08:51:43;1264.38;;;999.90;;
5929;SDS011;2990;48.746;9.236;2023-07-13T08:54:12;1393.72;;;999.90;;
5929;SDS011;2990;48.746;9.236;2023-07-13T08:56:43;1298.03;;;999.90;;
5929;SDS011;2990;48.746;9.236;2023-07-13T08:59:12;1341.13;;;999.90;;
5929;SDS011;2990;48.746;9.236;2023-07-13T09:04:56;1383.28;;;999.90;;
5929;SDS011;2990;48.746;9.236;2023-07-13T09:10:18;1433.65;;;999.90;;
5929;SDS011;2990;48.746;9.236;2023-07-13T09:15:23;1504.68;;;999.90;;
5929;SDS011;2990;48.746;9.236;2023-07-13T09:18:03;1432.20;;;999.90;;
5929;SDS011;2990;48.746;9.236;2023-07-13T09:20:48;1418.60;;;999.90;;
5929;SDS011;2990;48.746;9.236;2023-07-13T09:23:19;1559.57;;;999.90;;
5929;SDS011;2990;48.746;9.236;2023-07-13T09:25:47;1345.70;;;999.90;;
5929;SDS011;2990;48.746;9.236;2023-07-13T09:28:22;1469.65;;;999.90;;
5929;SDS011;2990;48.746;9.236;2023-07-13T09:33:14;1389.65;;;999.90;;
5929;SDS011;2990;48.746;9.236;2023-07-13T09:35:40;1444.55;;;999.90;;
5929;SDS011;2990;48.746;9.236;2023-07-13T09:38:13;1585.78;;;999.90;;
5929;SDS011;2990;48.746;9.236;2023-07-13T09:40:58;1559.25;;;999.90;;
5929;SDS011;2990;48.746;9.236;2023-07-13T09:44:06;1480.30;;;999.90;;
5929;SDS011;2990;48.746;9.236;2023-07-13T09:46:34;1589.22;;;999.90;;
5929;SDS011;2990;48.746;9.236;2023-07-13T09:49:00;1652.78;;;999.90;;
5929;SDS011;2990;48.746;9.236;2023-07-13T09:51:25;1451.05;;;999.90;;
5929;SDS011;2990;48.746;9.236;2023-07-13T09:53:51;1553.85;;;999.90;;
5929;SDS011;2990;48.746;9.236;2023-07-13T09:56:20;1607.78;;;999.90;;
5929;SDS011;2990;48.746;9.236;2023-07-13T09:58:51;1552.47;;;999.90;;
5929;SDS011;2990;48.746;9.236;2023-07-13T10:01:30;1652.63;;;999.90;;
5929;SDS011;2990;48.746;9.236;2023-07-13T10:03:58;1603.65;;;999.90;;
5929;SDS011;2990;48.746;9.236;2023-07-13T10:06:24;1590.97;;;999.90;;
5929;SDS011;2990;48.746;9.236;2023-07-13T10:08:51;1572.57;;;999.90;;
5929;SDS011;2990;48.746;9.236;2023-07-13T10:11:19;1392.03;;;999.90;;
5929;SDS011;2990;48.746;9.236;2023-07-13T10:16:18;1321.85;;;999.90;;
5929;SDS011;2990;48.746;9.236;2023-07-13T10:18:57;1423.10;;;999.90;;
5929;SDS011;2990;48.746;9.236;2023-07-13T10:21:27;1471.80;;;999.90;;
5929;SDS011;2990;48.746;9.236;2023-07-13T10:24:00;1349.78;;;999.90;;
5929;SDS011;2990;48.746;9.236;2023-07-13T10:26:32;1373.95;;;999.90;;
5929;SDS011;2990;48.746;9.236;2023-07-13T10:29:03;1493.65;;;999.90;;
5929;SDS011;2990;48.746;9.236;2023-07-13T10:31:40;1354.00;;;999.90;;
5929;SDS011;2990;48.746;9.236;2023-07-13T10:34:08;1465.82;;;999.90;;
5929;SDS011;2990;48.746;9.236;2023-07-13T10:36:39;1290.25;;;999.90;;
5929;SDS011;2990;48.746;9.236;2023-07-13T10:39:09;1416.60;;;999.90;;
5929;SDS011;2990;48.746;9.236;2023-07-13T10:41:40;1520.85;;;999.90;;
5929;SDS011;2990;48.746;9.236;2023-07-13T10:44:12;1382.25;;;999.90;;
5929;SDS011;2990;48.746;9.236;2023-07-13T10:47:06;1499.00;;;999.90;;
5929;SDS011;2990;48.746;9.236;2023-07-13T10:49:38;1508.55;;;999.90;;
5929;SDS011;2990;48.746;9.236;2023-07-13T10:52:06;1457.18;;;999.90;;
5929;SDS011;2990;48.746;9.236;2023-07-13T10:55:02;1449.75;;;999.90;;
5929;SDS011;2990;48.746;9.236;2023-07-13T10:57:28;1498.07;;;999.90;;
5929;SDS011;2990;48.746;9.236;2023-07-13T11:00:14;1472.65;;;999.90;;
5929;SDS011;2990;48.746;9.236;2023-07-13T11:02:42;1468.32;;;999.90;;
5929;SDS011;2990;48.746;9.236;2023-07-13T11:07:55;1436.38;;;999.90;;
5929;SDS011;2990;48.746;9.236;2023-07-13T11:10:46;1354.85;;;999.90;;
5929;SDS011;2990;48.746;9.236;2023-07-13T11:13:35;1471.25;;;999.90;;
5929;SDS011;2990;48.746;9.236;2023-07-13T11:16:00;1439.97;;;999.90;;
5929;SDS011;2990;48.746;9.236;2023-07-13T11:18:25;1509.70;;;999.90;;
5929;SDS011;2990;48.746;9.236;2023-07-13T11:20:51;1513.68;;;999.90;;
5929;SDS011;2990;48.746;9.236;2023-07-13T11:23:37;1499.93;;;999.90;;
5929;SDS011;2990;48.746;9.236;2023-07-13T11:26:37;1517.68;;;999.90;;
5929;SDS011;2990;48.746;9.236;2023-07-13T11:31:40;1535.85;;;999.90;;
5929;SDS011;2990;48.746;9.236;2023-07-13T11:34:10;1446.85;;;999.90;;
5929;SDS011;2990;48.746;9.236;2023-07-13T11:36:39;1486.88;;;999.90;;
5929;SDS011;2990;48.746;9.236;2023-07-13T11:42:02;1522.68;;;999.90;;
5929;SDS011;2990;48.746;9.236;2023-07-13T11:44:31;1451.88;;;999.90;;
5929;SDS011;2990;48.746;9.236;2023-07-13T11:46:59;1482.18;;;999.90;;
5929;SDS011;2990;48.746;9.236;2023-07-13T11:49:41;1342.88;;;999.90;;
5929;SDS011;2990;48.746;9.236;2023-07-13T11:52:14;1360.50;;;999.90;;
5929;SDS011;2990;48.746;9.236;2023-07-13T11:54:49;1327.25;;;999.90;;
5929;SDS011;2990;48.746;9.236;2023-07-13T11:59:58;1284.90;;;999.90;;
5929;SDS011;2990;48.746;9.236;2023-07-13T12:05:03;1362.75;;;999.90;;
5929;SDS011;2990;48.746;9.236;2023-07-13T12:07:31;1361.93;;;999.90;;
5929;SDS011;2990;48.746;9.236;2023-07-13T12:12:52;1350.30;;;999.90;;
5929;SDS011;2990;48.746;9.236;2023-07-13T12:15:20;1299.82;;;999.90;;
5929;SDS011;2990;48.746;9.236;2023-07-13T12:17:47;1293.47;;;999.90;;
5929;SDS011;2990;48.746;9.236;2023-07-13T12:20:24;1259.72;;;999.90;;
5929;SDS011;2990;48.746;9.236;2023-07-13T12:22:52;1298.05;;;999.90;;
5929;SDS011;2990;48.746;9.236;2023-07-13T12:25:18;1336.03;;;999.90;;
5929;SDS011;2990;48.746;9.236;2023-07-13T12:27:48;1366.20;;;999.90;;
5929;SDS011;2990;48.746;9.236;2023-07-13T12:30:31;1335.55;;;999.90;;
5929;SDS011;2990;48.746;9.236;2023-07-13T12:35:39;1368.70;;;999.90;;
5929;SDS011;2990;48.746;9.236;2023-07-13T12:38:09;1342.13;;;999.90;;
5929;SDS011;2990;48.746;9.236;2023-07-13T12:40:36;1432.18;;;999.90;;
5929;SDS011;2990;48.746;9.236;2023-07-13T12:43:02;1433.72;;;999.90;;
5929;SDS011;2990;48.746;9.236;2023-07-13T12:45:29;1365.40;;;999.90;;
5929;SDS011;2990;48.746;9.236;2023-07-13T12:48:06;1458.05;;;999.90;;
5929;SDS011;2990;48.746;9.236;2023-07-13T12:50:41;1428.68;;;999.90;;
5929;SDS011;2990;48.746;9.236;2023-07-13T12:53:15;1425.53;;;999.90;;
5929;SDS011;2990;48.746;9.236;2023-07-13T12:55:46;1427.18;;;999.90;;
5929;SDS011;2990;48.746;9.236;2023-07-13T12:58:20;1271.38;;;999.90;;
5929;SDS011;2990;48.746;9.236;2023-07-13T13:00:50;1311.68;;;999.90;;
5929;SDS011;2990;48.746;9.236;2023-07-13T13:05:58;1283.78;;;999.90;;
5929;SDS011;2990;48.746;9.236;2023-07-13T13:08:25;1246.90;;;999.90;;
5929;SDS011;2990;48.746;9.236;2023-07-13T13:10:50;1287.75;;;999.90;;
5929;SDS011;2990;48.746;9.236;2023-07-13T13:13:16;1292.40;;;999.90;;
5929;SDS011;2990;48.746;9.236;2023-07-13T13:15:42;1282.60;;;999.90;;
5929;SDS011;2990;48.746;9.236;2023-07-13T13:18:15;1304.55;;;999.90;;
5929;SDS011;2990;48.746;9.236;2023-07-13T13:20:42;1312.28;;;999.90;;
5929;SDS011;2990;48.746;9.236;2023-07-13T13:23:12;1353.10;;;999.90;;
5929;SDS011;2990;48.746;9.236;2023-07-13T13:25:40;1399.38;;;999.90;;
5929;SDS011;2990;48.746;9.236;2023-07-13T13:28:11;1427.00;;;999.90;;
5929;SDS011;2990;48.746;9.236;2023-07-13T13:30:39;1483.88;;;999.90;;
5929;SDS011;2990;48.746;9.236;2023-07-13T13:33:08;1470.15;;;999.90;;
5929;SDS011;2990;48.746;9.236;2023-07-13T13:35:36;1465.75;;;999.90;;
5929;SDS011;2990;48.746;9.236;2023-07-13T13:38:01;1530.70;;;999.90;;
5929;SDS011;2990;48.746;9.236;2023-07-13T13:40:27;1480.70;;;999.90;;
5929;SDS011;2990;48.746;9.236;2023-07-13T13:42:53;1477.75;;;999.90;;
5929;SDS011;2990;48.746;9.236;2023-07-13T13:45:21;1478.90;;;999.90;;
5929;SDS011;2990;48.746;9.236;2023-07-13T13:47:46;1492.57;;;999.90;;
5929;SDS011;2990;48.746;9.236;2023-07-13T13:52:47;1445.15;;;999.90;;
5929;SDS011;2990;48.746;9.236;2023-07-13T13:55:17;1452.03;;;999.90;;
5929;SDS011;2990;48.746;9.236;2023-07-13T13:57:47;1428.80;;;999.90;;
5929;SDS011;2990;48.746;9.236;2023-07-13T14:00:14;1489.68;;;999.90;;
5929;SDS011;2990;48.746;9.236;2023-07-13T14:02:42;1485.60;;;999.90;;
5929;SDS011;2990;48.746;9.236;2023-07-13T14:05:13;1397.20;;;999.90;;
5929;SDS011;2990;48.746;9.236;2023-07-13T14:07:39;1414.68;;;999.90;;
5929;SDS011;2990;48.746;9.236;2023-07-13T14:10:10;1422.20;;;999.90;;
5929;SDS011;2990;48.746;9.236;2023-07-13T14:12:38;1488.55;;;999.90;;
5929;SDS011;2990;48.746;9.236;2023-07-13T14:15:04;1508.13;;;999.90;;
5929;SDS011;2990;48.746;9.236;2023-07-13T14:17:30;1476.22;;;999.90;;
5929;SDS011;2990;48.746;9.236;2023-07-13T14:19:56;1536.75;;;999.90;;
5929;SDS011;2990;48.746;9.236;2023-07-13T14:22:25;1524.00;;;999.90;;
5929;SDS011;2990;48.746;9.236;2023-07-13T14:24:52;1438.70;;;999.90;;
5929;SDS011;2990;48.746;9.236;2023-07-13T14:27:19;1531.47;;;999.90;;
5929;SDS011;2990;48.746;9.236;2023-07-13T14:29:45;1513.78;;;999.90;;
5929;SDS011;2990;48.746;9.236;2023-07-13T14:32:11;1479.93;;;999.90;;
5929;SDS011;2990;48.746;9.236;2023-07-13T14:34:37;1480.82;;;999.90;;
5929;SDS011;2990;48.746;9.236;2023-07-13T14:37:03;1422.53;;;999.90;;
5929;SDS011;2990;48.746;9.236;2023-07-13T14:39:30;1306.32;;;999.90;;
5929;SDS011;2990;48.746;9.236;2023-07-13T14:41:56;1392.25;;;999.90;;
5929;SDS011;2990;48.746;9.236;2023-07-13T14:44:29;1390.32;;;999.90;;
5929;SDS011;2990;48.746;9.236;2023-07-13T14:46:59;1331.85;;;999.90;;
5929;SDS011;2990;48.746;9.236;2023-07-13T14:49:30;1295.32;;;999.90;;
5929;SDS011;2990;48.746;9.236;2023-07-13T14:51:59;1235.32;;;999.90;;
5929;SDS011;2990;48.746;9.236;2023-07-13T14:54:26;1237.85;;;999.90;;
5929;SDS011;2990;48.746;9.236;2023-07-13T14:56:52;1280.60;;;999.90;;
5929;SDS011;2990;48.746;9.236;2023-07-13T14:59:18;1295.55;;;999.90;;
5929;SDS011;2990;48.746;9.236;2023-07-13T15:01:49;1277.25;;;999.90;;